createdAt,value
2022-12-18T00:02:02.100Z,99.99
2022-12-18T00:04:30.389Z,99.99
2022-12-18T00:06:58.564Z,99.99
2022-12-18T00:09:31.575Z,99.99
2022-12-18T00:14:43.985Z,99.99
2022-12-18T00:17:12.144Z,99.99
2022-12-18T00:19:39.949Z,99.99
2022-12-18T00:22:07.905Z,99.99
2022-12-18T00:24:35.765Z,99.99
2022-12-18T00:27:03.777Z,99.99
2022-12-18T00:29:31.684Z,99.99
2022-12-18T00:31:59.636Z,99.99
2022-12-18T00:34:27.626Z,99.99
2022-12-18T00:36:55.411Z,99.99
2022-12-18T00:39:24.042Z,99.99
2022-12-18T00:42:10.228Z,99.99
2022-12-18T00:44:38.146Z,99.99
2022-12-18T00:47:06.212Z,99.99
2022-12-18T00:49:35.061Z,99.99
2022-12-18T00:52:02.982Z,99.99
2022-12-18T00:54:30.945Z,99.99
2022-12-18T00:56:59.007Z,99.99
2022-12-18T00:59:26.866Z,99.99
2022-12-18T01:01:54.942Z,99.99
2022-12-18T01:04:22.909Z,99.99
2022-12-18T01:06:51.273Z,99.99
2022-12-18T01:09:23.109Z,99.99
2022-12-18T01:11:52.774Z,99.99
2022-12-18T01:14:20.669Z,99.99
2022-12-18T01:16:48.787Z,99.99
2022-12-18T01:19:17.078Z,99.99
2022-12-18T01:21:44.876Z,99.99
2022-12-18T01:24:13.357Z,99.99
2022-12-18T01:26:41.329Z,99.99
2022-12-18T01:29:09.337Z,99.99
2022-12-18T01:31:37.621Z,99.99
2022-12-18T01:34:06.319Z,99.99
2022-12-18T01:36:38.721Z,99.99
2022-12-18T01:39:11.086Z,99.99
2022-12-18T01:41:58.531Z,99.99
2022-12-18T01:44:51.451Z,99.99
2022-12-18T01:47:45.569Z,99.99
2022-12-18T01:50:26.011Z,99.99
2022-12-18T01:53:14.992Z,99.99
2022-12-18T01:55:54.701Z,99.99
2022-12-18T01:58:30.205Z,99.99
2022-12-18T02:00:59.395Z,99.99
2022-12-18T02:03:29.085Z,99.99
2022-12-18T02:06:50.383Z,99.99
2022-12-18T02:09:28.164Z,99.99
2022-12-18T02:12:21.806Z,99.99
2022-12-18T02:15:06.808Z,99.99
2022-12-18T02:18:10.055Z,99.99
2022-12-18T02:20:55.060Z,99.99
2022-12-18T02:23:55.667Z,99.99
2022-12-18T02:26:36.513Z,99.99
2022-12-18T02:29:22.032Z,99.99
2022-12-18T02:32:01.423Z,99.99
2022-12-18T02:34:32.297Z,99.99
2022-12-18T02:37:03.399Z,99.99
2022-12-18T02:39:33.974Z,99.99
2022-12-18T02:42:09.093Z,99.99
2022-12-18T02:44:45.338Z,99.99
2022-12-18T02:47:17.223Z,99.99
2022-12-18T02:50:06.633Z,99.99
2022-12-18T02:52:48.371Z,99.99
2022-12-18T02:55:47.324Z,99.99
2022-12-18T02:58:31.805Z,99.99
2022-12-18T03:01:17.047Z,99.99
2022-12-18T03:03:52.907Z,99.99
2022-12-18T03:06:28.851Z,99.99
2022-12-18T03:09:03.295Z,99.99
2022-12-18T03:11:56.136Z,99.99
2022-12-18T03:14:27.306Z,99.99
2022-12-18T03:17:00.150Z,99.99
2022-12-18T03:19:32.571Z,99.99
2022-12-18T03:22:04.866Z,99.99
2022-12-18T03:24:43.173Z,99.99
2022-12-18T03:27:17.058Z,99.99
2022-12-18T03:29:57.640Z,99.99
2022-12-18T03:32:34.556Z,99.99
2022-12-18T03:35:06.799Z,99.99
2022-12-18T03:37:38.595Z,99.99
2022-12-18T03:40:07.743Z,99.99
2022-12-18T03:43:00.291Z,99.99
2022-12-18T03:45:35.583Z,99.99
2022-12-18T03:48:32.270Z,99.99
2022-12-18T03:51:12.909Z,99.99
2022-12-18T03:53:57.148Z,99.99
2022-12-18T03:56:33.940Z,99.99
2022-12-18T03:59:04.012Z,99.99
2022-12-18T04:01:42.824Z,99.99
2022-12-18T04:04:15.772Z,99.99
2022-12-18T04:06:46.784Z,99.99
2022-12-18T04:09:15.817Z,99.99
2022-12-18T04:11:48.531Z,99.99
2022-12-18T04:14:18.533Z,99.94
2022-12-18T04:16:50.850Z,99.91
2022-12-18T04:19:22.578Z,99.85
2022-12-18T04:21:52.230Z,99.99
2022-12-18T04:24:20.300Z,99.93
2022-12-18T04:26:59.492Z,99.81
2022-12-18T04:29:33.094Z,99.84
2022-12-18T04:32:01.139Z,99.93
2022-12-18T04:34:31.592Z,99.99
2022-12-18T04:37:00.197Z,99.99
2022-12-18T04:39:31.391Z,99.99
2022-12-18T04:42:05.167Z,99.99
2022-12-18T04:44:35.004Z,99.99
2022-12-18T04:47:02.924Z,99.86
2022-12-18T04:49:30.746Z,99.96
2022-12-18T04:51:58.800Z,99.80
2022-12-18T04:54:26.785Z,99.98
2022-12-18T04:56:54.748Z,99.76
2022-12-18T04:59:23.224Z,99.73
2022-12-18T05:01:51.675Z,99.88
2022-12-18T05:04:19.820Z,99.81
2022-12-18T05:06:47.812Z,99.73
2022-12-18T05:09:16.499Z,99.85
2022-12-18T05:11:44.597Z,99.79
2022-12-18T05:14:14.680Z,99.64
2022-12-18T05:16:42.531Z,99.61
2022-12-18T05:19:10.853Z,99.47
2022-12-18T05:21:39.306Z,99.55
2022-12-18T05:24:08.096Z,99.83
2022-12-18T05:26:38.526Z,99.88
2022-12-18T05:29:06.481Z,99.83
2022-12-18T05:31:39.038Z,99.76
2022-12-18T05:34:08.313Z,99.90
2022-12-18T05:36:36.179Z,99.90
2022-12-18T05:39:04.420Z,99.84
2022-12-18T05:41:32.551Z,99.80
2022-12-18T05:44:00.552Z,99.77
2022-12-18T05:46:28.793Z,99.76
2022-12-18T05:48:59.886Z,99.82
2022-12-18T05:51:27.820Z,99.74
2022-12-18T05:53:55.993Z,99.69
2022-12-18T05:56:24.696Z,99.66
2022-12-18T05:58:54.344Z,99.66
2022-12-18T06:01:27.698Z,99.73
2022-12-18T06:03:56.378Z,99.75
2022-12-18T06:06:26.821Z,99.87
2022-12-18T06:08:55.481Z,99.76
2022-12-18T06:11:27.461Z,99.89
2022-12-18T06:13:59.156Z,99.87
2022-12-18T06:16:28.877Z,99.99
2022-12-18T06:19:02.437Z,99.67
2022-12-18T06:21:31.791Z,99.97
2022-12-18T06:24:00.945Z,99.79
2022-12-18T06:26:28.923Z,99.80
2022-12-18T06:28:56.962Z,99.86
2022-12-18T06:31:26.216Z,99.92
2022-12-18T06:33:54.323Z,99.92
2022-12-18T06:36:22.374Z,99.87
2022-12-18T06:38:50.589Z,99.58
2022-12-18T06:41:21.228Z,99.51
2022-12-18T06:43:49.207Z,99.36
2022-12-18T06:46:17.498Z,99.57
2022-12-18T06:48:49.909Z,99.60
2022-12-18T06:51:23.420Z,99.63
2022-12-18T06:53:51.369Z,99.52
2022-12-18T06:56:19.282Z,99.65
2022-12-18T06:58:47.492Z,99.82
2022-12-18T07:01:15.687Z,99.86
2022-12-18T07:03:44.438Z,99.85
2022-12-18T07:06:17.816Z,99.88
2022-12-18T07:08:47.006Z,99.99
2022-12-18T07:11:15.460Z,99.74
2022-12-18T07:13:43.877Z,99.66
2022-12-18T07:16:22.396Z,99.80
2022-12-18T07:18:53.095Z,99.86
2022-12-18T07:21:22.677Z,99.64
2022-12-18T07:23:51.054Z,99.40
2022-12-18T07:26:21.033Z,99.69
2022-12-18T07:28:49.909Z,99.65
2022-12-18T07:31:21.604Z,99.61
2022-12-18T07:33:53.578Z,99.77
2022-12-18T07:36:21.817Z,99.74
2022-12-18T07:38:51.255Z,99.69
2022-12-18T07:41:19.917Z,99.51
2022-12-18T07:43:48.628Z,99.52
2022-12-18T07:46:17.457Z,99.39
2022-12-18T07:48:49.364Z,99.24
2022-12-18T07:51:19.403Z,99.17
2022-12-18T07:53:52.419Z,99.08
2022-12-18T07:56:30.560Z,98.78
2022-12-18T07:59:01.583Z,98.67
2022-12-18T08:01:30.010Z,98.61
2022-12-18T08:03:59.723Z,98.49
2022-12-18T08:06:27.750Z,98.65
2022-12-18T08:08:56.913Z,98.41
2022-12-18T08:11:27.285Z,98.32
2022-12-18T08:13:55.628Z,98.38
2022-12-18T08:16:24.042Z,98.39
2022-12-18T08:18:54.477Z,98.33
2022-12-18T08:21:25.165Z,98.05
2022-12-18T08:23:54.168Z,98.01
2022-12-18T08:26:22.745Z,97.79
2022-12-18T08:28:51.766Z,97.35
2022-12-18T08:31:21.082Z,97.19
2022-12-18T08:33:53.938Z,96.89
2022-12-18T08:36:25.061Z,96.67
2022-12-18T08:38:55.026Z,96.54
2022-12-18T08:41:24.241Z,96.34
2022-12-18T08:44:11.642Z,96.23
2022-12-18T08:46:42.576Z,96.08
2022-12-18T08:49:12.426Z,95.82
2022-12-18T08:51:41.342Z,95.41
2022-12-18T08:54:15.018Z,95.30
2022-12-18T08:56:43.815Z,95.19
2022-12-18T08:59:19.039Z,94.92
2022-12-18T09:01:49.647Z,94.64
2022-12-18T09:04:18.470Z,94.51
2022-12-18T09:06:46.912Z,94.48
2022-12-18T09:09:15.540Z,94.27
2022-12-18T09:11:44.087Z,94.20
2022-12-18T09:14:12.128Z,94.18
2022-12-18T09:16:40.105Z,93.98
2022-12-18T09:19:08.284Z,93.63
2022-12-18T09:21:42.170Z,93.74
2022-12-18T09:24:14.809Z,93.62
2022-12-18T09:26:43.678Z,93.38
2022-12-18T09:29:18.469Z,93.04
2022-12-18T09:31:47.755Z,92.96
2022-12-18T09:34:17.739Z,92.91
2022-12-18T09:36:46.192Z,92.84
2022-12-18T09:39:16.099Z,93.15
2022-12-18T09:41:58.832Z,92.69
2022-12-18T09:44:29.311Z,92.89
2022-12-18T09:47:21.234Z,92.73
2022-12-18T09:49:54.196Z,92.64
2022-12-18T09:52:41.116Z,92.36
2022-12-18T09:55:20.630Z,92.40
2022-12-18T09:57:57.907Z,92.08
2022-12-18T10:00:27.324Z,92.08
2022-12-18T10:03:04.525Z,91.96
2022-12-18T10:06:00.512Z,91.72
2022-12-18T10:08:55.642Z,91.58
2022-12-18T10:11:47.568Z,91.60
2022-12-18T10:14:31.715Z,91.26
2022-12-18T10:17:24.267Z,91.07
2022-12-18T10:20:03.933Z,91.36
2022-12-18T10:22:44.054Z,91.00
2022-12-18T10:28:16.273Z,90.70
2022-12-18T10:30:51.215Z,90.64
2022-12-18T10:33:25.486Z,90.49
2022-12-18T10:35:53.911Z,90.52
2022-12-18T10:38:32.877Z,89.93
2022-12-18T10:41:07.222Z,90.04
2022-12-18T10:43:37.527Z,89.92
2022-12-18T10:46:11.595Z,90.03
2022-12-18T10:48:53.938Z,89.60
2022-12-18T10:51:36.653Z,89.50
2022-12-18T10:54:20.317Z,89.61
2022-12-18T10:56:48.608Z,89.45
2022-12-18T10:59:18.706Z,88.95
2022-12-18T11:01:56.586Z,88.84
2022-12-18T11:04:29.909Z,88.45
2022-12-18T11:07:06.698Z,88.53
2022-12-18T11:09:37.740Z,88.60
2022-12-18T11:12:13.692Z,88.54
2022-12-18T11:14:49.571Z,88.36
2022-12-18T11:17:32.209Z,88.00
2022-12-18T11:20:02.485Z,87.44
2022-12-18T11:22:33.008Z,87.52
2022-12-18T11:28:00.976Z,86.46
2022-12-18T11:30:32.550Z,86.69
2022-12-18T11:33:22.690Z,85.99
2022-12-18T11:36:05.055Z,85.98
2022-12-18T11:38:37.995Z,86.10
2022-12-18T11:41:21.162Z,85.76
2022-12-18T11:43:56.794Z,85.45
2022-12-18T11:46:44.589Z,84.91
2022-12-18T11:49:35.552Z,85.15
2022-12-18T11:52:22.197Z,84.89
2022-12-18T11:54:57.798Z,84.68
2022-12-18T11:57:59.479Z,84.72
2022-12-18T12:00:27.781Z,84.88
2022-12-18T12:03:06.540Z,85.21
2022-12-18T12:06:04.663Z,84.74
2022-12-18T12:08:39.286Z,84.63
2022-12-18T12:11:12.142Z,84.59
2022-12-18T12:14:04.777Z,84.81
2022-12-18T12:16:52.069Z,84.33
2022-12-18T12:19:29.757Z,84.56
2022-12-18T12:22:14.768Z,84.35
2022-12-18T12:25:07.479Z,84.38
2022-12-18T12:27:47.999Z,84.32
2022-12-18T12:30:23.864Z,84.23
2022-12-18T12:33:04.303Z,84.54
2022-12-18T12:35:56.334Z,84.03
2022-12-18T12:38:32.040Z,83.99
2022-12-18T12:41:05.150Z,84.23
2022-12-18T12:43:50.241Z,84.16
2022-12-18T12:46:37.884Z,83.68
2022-12-18T12:49:12.447Z,83.50
2022-12-18T12:51:47.210Z,83.56
2022-12-18T12:54:27.077Z,83.40
2022-12-18T12:57:01.249Z,83.36
2022-12-18T12:59:50.848Z,83.24
2022-12-18T13:02:34.675Z,83.54
2022-12-18T13:05:19.255Z,83.48
2022-12-18T13:08:22.514Z,83.41
2022-12-18T13:11:13.004Z,83.42
2022-12-18T13:13:57.313Z,83.58
2022-12-18T13:16:28.555Z,83.78
2022-12-18T13:19:02.049Z,83.57
2022-12-18T13:21:33.576Z,83.48
2022-12-18T13:24:28.622Z,83.61
2022-12-18T13:26:57.624Z,83.68
2022-12-18T13:29:47.654Z,83.87
2022-12-18T13:32:27.587Z,83.71
2022-12-18T13:35:35.318Z,83.63
2022-12-18T13:38:21.444Z,83.62
2022-12-18T13:40:49.774Z,83.63
2022-12-18T13:43:45.608Z,83.60
2022-12-18T13:46:47.404Z,83.61
2022-12-18T13:49:15.687Z,83.66
2022-12-18T13:51:48.280Z,83.80
2022-12-18T13:54:38.637Z,83.83
2022-12-18T13:57:26.336Z,83.59
2022-12-18T13:59:54.531Z,83.62
2022-12-18T14:02:27.433Z,83.65
2022-12-18T14:04:56.396Z,84.02
2022-12-18T14:07:27.195Z,84.01
2022-12-18T14:10:25.883Z,84.29
2022-12-18T14:12:59.178Z,83.78
2022-12-18T14:15:44.721Z,83.82
2022-12-18T14:18:19.172Z,83.93
2022-12-18T14:20:53.239Z,84.04
2022-12-18T14:23:35.146Z,83.73
2022-12-18T14:26:20.535Z,84.24
2022-12-18T14:28:48.932Z,84.14
2022-12-18T14:31:24.684Z,84.12
2022-12-18T14:33:54.007Z,84.23
2022-12-18T14:36:28.938Z,84.41
2022-12-18T14:39:00.676Z,84.41
2022-12-18T14:41:29.794Z,84.44
2022-12-18T14:44:08.104Z,84.46
2022-12-18T14:46:40.464Z,84.45
2022-12-18T14:49:37.941Z,84.53
2022-12-18T14:52:20.035Z,84.56
2022-12-18T14:54:48.824Z,84.94
2022-12-18T14:57:36.992Z,84.77
2022-12-18T15:00:09.094Z,84.70
2022-12-18T15:02:40.248Z,84.39
2022-12-18T15:05:14.759Z,84.69
2022-12-18T15:07:48.670Z,84.78
2022-12-18T15:10:18.450Z,84.57
2022-12-18T15:13:08.615Z,84.37
2022-12-18T15:15:45.872Z,84.23
2022-12-18T15:18:26.847Z,84.43
2022-12-18T15:20:59.904Z,84.34
2022-12-18T15:23:30.982Z,84.50
2022-12-18T15:26:11.559Z,84.72
2022-12-18T15:28:46.543Z,84.92
2022-12-18T15:31:15.890Z,84.94
2022-12-18T15:33:54.908Z,84.87
2022-12-18T15:36:27.632Z,85.07
2022-12-18T15:39:06.512Z,84.89
2022-12-18T15:41:39.133Z,84.97
2022-12-18T15:44:29.941Z,84.98
2022-12-18T15:46:59.134Z,85.01
2022-12-18T15:49:30.434Z,85.15
2022-12-18T15:52:05.797Z,85.02
2022-12-18T15:54:52.309Z,85.11
2022-12-18T15:57:26.698Z,85.24
2022-12-18T15:59:58.964Z,85.20
2022-12-18T16:02:29.175Z,85.37
2022-12-18T16:05:00.472Z,85.34
2022-12-18T16:07:30.768Z,85.49
2022-12-18T16:10:01.011Z,85.73
2022-12-18T16:12:32.963Z,85.44
2022-12-18T16:15:07.702Z,85.67
2022-12-18T16:17:37.251Z,85.33
2022-12-18T16:20:06.011Z,85.56
2022-12-18T16:22:34.684Z,85.62
2022-12-18T16:25:06.458Z,85.82
2022-12-18T16:27:37.580Z,85.61
2022-12-18T16:30:06.137Z,85.72
2022-12-18T16:32:34.093Z,85.68
2022-12-18T16:35:02.303Z,85.45
2022-12-18T16:37:30.390Z,85.44
2022-12-18T16:39:58.516Z,85.59
2022-12-18T16:42:26.554Z,85.26
2022-12-18T16:44:54.942Z,85.15
2022-12-18T16:47:23.204Z,84.94
2022-12-18T16:49:53.022Z,84.89
2022-12-18T16:52:21.362Z,84.64
2022-12-18T16:54:49.673Z,84.28
2022-12-18T16:57:21.121Z,84.06
2022-12-18T16:59:52.333Z,83.89
2022-12-18T17:02:26.003Z,83.57
2022-12-18T17:04:58.746Z,83.14
2022-12-18T17:07:30.099Z,83.02
2022-12-18T17:09:58.709Z,82.67
2022-12-18T17:12:28.480Z,82.58
2022-12-18T17:14:59.830Z,81.97
2022-12-18T17:17:27.816Z,81.56
2022-12-18T17:19:55.982Z,81.34
2022-12-18T17:22:23.862Z,80.70
2022-12-18T17:24:57.347Z,80.37
2022-12-18T17:27:25.504Z,79.98
2022-12-18T17:29:54.196Z,79.83
2022-12-18T17:32:22.238Z,79.59
2022-12-18T17:34:50.068Z,79.47
2022-12-18T17:37:18.002Z,79.27
2022-12-18T17:39:45.987Z,79.57
2022-12-18T17:42:15.921Z,79.52
2022-12-18T17:44:44.989Z,79.66
2022-12-18T17:47:14.294Z,79.71
2022-12-18T17:49:42.157Z,79.80
2022-12-18T17:52:10.982Z,79.94
2022-12-18T17:54:41.841Z,80.02
2022-12-18T17:57:10.343Z,80.24
2022-12-18T17:59:38.439Z,79.85
2022-12-18T18:02:06.956Z,80.10
2022-12-18T18:04:35.499Z,79.97
2022-12-18T18:07:03.795Z,80.06
2022-12-18T18:09:32.594Z,79.97
2022-12-18T18:12:19.264Z,80.29
2022-12-18T18:14:47.489Z,80.24
2022-12-18T18:17:15.821Z,80.27
2022-12-18T18:19:49.735Z,80.43
2022-12-18T18:22:18.858Z,80.52
2022-12-18T18:24:47.023Z,80.82
2022-12-18T18:27:15.263Z,80.81
2022-12-18T18:29:43.442Z,80.97
2022-12-18T18:32:11.531Z,81.27
2022-12-18T18:34:39.611Z,81.14
2022-12-18T18:37:07.915Z,81.19
2022-12-18T18:39:36.142Z,81.32
2022-12-18T18:42:04.214Z,81.61
2022-12-18T18:44:32.401Z,81.37
2022-12-18T18:47:00.992Z,81.70
2022-12-18T18:49:31.796Z,81.82
2022-12-18T18:52:00.250Z,81.93
2022-12-18T18:54:28.376Z,81.86
2022-12-18T18:57:19.402Z,81.99
2022-12-18T18:59:44.225Z,82.07
2022-12-18T19:02:14.293Z,82.14
2022-12-18T19:04:46.260Z,82.36
2022-12-18T19:07:28.110Z,82.38
2022-12-18T19:10:03.960Z,82.31
2022-12-18T19:12:52.670Z,82.31
2022-12-18T19:15:22.896Z,82.33
2022-12-18T19:17:50.944Z,82.61
2022-12-18T19:20:19.273Z,82.37
2022-12-18T19:22:54.370Z,82.46
2022-12-18T19:25:33.856Z,82.62
2022-12-18T19:28:21.473Z,82.69
2022-12-18T19:30:50.927Z,82.83
2022-12-18T19:33:42.218Z,82.68
2022-12-18T19:36:23.491Z,82.69
2022-12-18T19:38:53.431Z,82.53
2022-12-18T19:41:22.856Z,82.72
2022-12-18T19:43:51.667Z,82.69
2022-12-18T19:46:22.638Z,82.81
2022-12-18T19:48:51.284Z,82.66
2022-12-18T19:51:24.970Z,82.87
2022-12-18T19:53:58.395Z,82.80
2022-12-18T19:56:30.774Z,82.72
2022-12-18T19:58:59.808Z,82.72
2022-12-18T20:01:29.556Z,82.71
2022-12-18T20:03:58.859Z,82.82
2022-12-18T20:06:32.321Z,82.91
2022-12-18T20:09:05.208Z,82.73
2022-12-18T20:11:36.379Z,82.75
2022-12-18T20:14:11.064Z,82.81
2022-12-18T20:16:39.242Z,82.85
2022-12-18T20:19:07.854Z,82.87
2022-12-18T20:21:37.067Z,83.06
2022-12-18T20:24:07.014Z,82.95
2022-12-18T20:26:35.650Z,82.73
2022-12-18T20:29:03.626Z,82.95
2022-12-18T20:31:31.575Z,82.91
2022-12-18T20:34:01.499Z,83.08
2022-12-18T20:36:32.869Z,83.18
2022-12-18T20:39:03.997Z,83.52
2022-12-18T20:41:38.530Z,84.01
2022-12-18T20:44:22.662Z,84.54
2022-12-18T20:46:54.272Z,84.69
2022-12-18T20:49:22.840Z,85.13
2022-12-18T20:51:53.171Z,85.72
2022-12-18T20:54:22.542Z,86.89
2022-12-18T20:56:51.320Z,86.97
2022-12-18T20:59:19.935Z,87.01
2022-12-18T21:01:49.489Z,87.17
2022-12-18T21:04:19.192Z,87.40
2022-12-18T21:06:54.200Z,88.13
2022-12-18T21:09:30.680Z,88.34
2022-12-18T21:12:29.637Z,88.96
2022-12-18T21:15:06.211Z,89.36
2022-12-18T21:17:34.659Z,89.69
2022-12-18T21:20:15.868Z,89.93
2022-12-18T21:22:46.935Z,90.66
2022-12-18T21:25:15.002Z,90.56
2022-12-18T21:27:42.904Z,91.24
2022-12-18T21:30:14.910Z,91.39
2022-12-18T21:32:51.477Z,91.88
2022-12-18T21:35:19.369Z,91.65
2022-12-18T21:37:48.853Z,92.08
2022-12-18T21:40:16.762Z,92.16
2022-12-18T21:43:03.284Z,92.75
2022-12-18T21:45:31.216Z,92.72
2022-12-18T21:47:59.244Z,92.92
2022-12-18T21:50:27.175Z,93.08
2022-12-18T21:52:55.505Z,93.44
2022-12-18T21:55:23.413Z,93.32
2022-12-18T21:57:53.486Z,93.82
2022-12-18T22:00:21.516Z,93.99
2022-12-18T22:03:17.723Z,93.81
2022-12-18T22:05:40.054Z,94.05
2022-12-18T22:08:07.994Z,94.31
2022-12-18T22:10:39.231Z,94.51
2022-12-18T22:13:15.485Z,94.51
2022-12-18T22:15:52.608Z,94.87
2022-12-18T22:18:21.412Z,95.10
2022-12-18T22:20:49.330Z,95.29
2022-12-18T22:23:17.290Z,95.30
2022-12-18T22:25:45.200Z,95.23
2022-12-18T22:28:48.232Z,95.44
2022-12-18T22:31:16.071Z,95.62
2022-12-18T22:33:44.075Z,95.71
2022-12-18T22:36:13.949Z,95.88
2022-12-18T22:38:43.964Z,96.40
2022-12-18T22:41:11.758Z,96.37
2022-12-18T22:43:39.527Z,96.23
2022-12-18T22:46:10.352Z,96.49
2022-12-18T22:48:39.075Z,96.29
2022-12-18T22:51:07.141Z,96.21
2022-12-18T22:53:35.036Z,96.35
2022-12-18T22:56:03.324Z,96.50
2022-12-18T22:58:31.556Z,96.49
2022-12-18T23:00:59.484Z,96.59
2022-12-18T23:03:27.367Z,96.47
2022-12-18T23:06:05.869Z,96.52
2022-12-18T23:08:35.002Z,96.56
2022-12-18T23:11:03.393Z,96.65
2022-12-18T23:13:32.550Z,96.78
2022-12-18T23:16:00.789Z,96.76
2022-12-18T23:18:28.901Z,96.96
2022-12-18T23:20:56.878Z,96.89
2022-12-18T23:23:25.719Z,97.05
2022-12-18T23:26:02.022Z,96.76
2022-12-18T23:28:31.120Z,96.89
2022-12-18T23:31:13.693Z,96.61
2022-12-18T23:33:44.764Z,96.28
2022-12-18T23:36:14.678Z,96.36
2022-12-18T23:38:43.085Z,96.46
2022-12-18T23:41:14.474Z,96.49
2022-12-18T23:43:42.988Z,96.35
2022-12-18T23:46:18.121Z,96.36
2022-12-18T23:48:46.620Z,96.25
2022-12-18T23:51:15.810Z,96.49
2022-12-18T23:53:44.291Z,96.41
2022-12-18T23:56:13.919Z,96.29
2022-12-18T23:58:43.331Z,96.48
